createdAt,value
2022-10-19T00:00:51.379Z,12.19
2022-10-19T00:03:20.764Z,12.16
2022-10-19T00:05:49.603Z,12.14
2022-10-19T00:08:16.013Z,12.13
2022-10-19T00:10:42.484Z,12.13
2022-10-19T00:13:08.910Z,12.13
2022-10-19T00:15:39.322Z,12.11
2022-10-19T00:18:05.952Z,12.09
2022-10-19T00:20:32.361Z,12.07
2022-10-19T00:22:58.769Z,12.07
2022-10-19T00:25:25.166Z,12.05
2022-10-19T00:27:51.565Z,12.04
2022-10-19T00:30:17.966Z,12.03
2022-10-19T00:32:44.406Z,12.02
2022-10-19T00:35:10.832Z,11.99
2022-10-19T00:37:37.272Z,11.98
2022-10-19T00:40:04.288Z,11.97
2022-10-19T00:42:31.013Z,11.96
2022-10-19T00:45:00.036Z,11.97
2022-10-19T00:47:26.913Z,11.96
2022-10-19T00:49:53.871Z,11.96
2022-10-19T00:52:22.195Z,11.96
2022-10-19T00:54:49.587Z,11.96
2022-10-19T00:57:16.225Z,11.97
2022-10-19T00:59:44.606Z,11.95
2022-10-19T01:02:11.121Z,11.96
2022-10-19T01:04:40.468Z,11.96
2022-10-19T01:07:08.150Z,11.96
2022-10-19T01:09:34.772Z,11.96
2022-10-19T01:12:15.897Z,11.96
2022-10-19T01:14:48.245Z,11.96
2022-10-19T01:17:31.572Z,11.96
2022-10-19T01:20:20.881Z,11.97
2022-10-19T01:23:13.656Z,11.98
2022-10-19T01:26:11.140Z,11.99
2022-10-19T01:29:15.197Z,12.00
2022-10-19T01:31:50.710Z,12.02
2022-10-19T01:34:23.293Z,12.05
2022-10-19T01:36:54.976Z,12.06
2022-10-19T01:39:30.794Z,12.07
2022-10-19T01:42:01.568Z,12.08
2022-10-19T01:44:34.545Z,12.10
2022-10-19T01:47:13.474Z,12.11
2022-10-19T01:49:55.686Z,12.13
2022-10-19T01:52:23.565Z,12.14
2022-10-19T01:54:59.785Z,12.15
2022-10-19T01:57:38.954Z,12.18
2022-10-19T02:00:07.568Z,12.18
2022-10-19T02:02:36.853Z,12.21
2022-10-19T02:05:04.786Z,12.22
2022-10-19T02:07:31.928Z,12.25
2022-10-19T02:09:58.368Z,12.27
2022-10-19T02:12:25.782Z,12.30
2022-10-19T02:14:56.768Z,12.31
2022-10-19T02:17:29.618Z,12.32
2022-10-19T02:19:57.284Z,12.33
2022-10-19T02:22:23.782Z,12.34
2022-10-19T02:24:50.493Z,12.34
2022-10-19T02:27:17.475Z,12.37
2022-10-19T02:29:43.878Z,12.38
2022-10-19T02:32:10.611Z,12.39
2022-10-19T02:34:37.655Z,12.39
2022-10-19T02:37:04.932Z,12.41
2022-10-19T02:39:31.817Z,12.40
2022-10-19T02:42:07.118Z,12.43
2022-10-19T02:44:57.359Z,12.42
2022-10-19T02:47:39.272Z,12.42
2022-10-19T02:50:06.834Z,12.44
2022-10-19T02:52:33.316Z,12.45
2022-10-19T02:54:59.745Z,12.47
2022-10-19T02:57:26.155Z,12.50
2022-10-19T02:59:52.801Z,12.53
2022-10-19T03:02:20.487Z,12.54
2022-10-19T03:07:20.330Z,12.60
2022-10-19T03:09:46.905Z,12.62
2022-10-19T03:12:14.091Z,12.65
2022-10-19T03:14:40.550Z,12.63
2022-10-19T03:17:07.005Z,12.66
2022-10-19T03:19:34.853Z,12.66
2022-10-19T03:22:02.287Z,12.67
2022-10-19T03:24:30.166Z,12.68
2022-10-19T03:26:57.590Z,12.68
2022-10-19T03:29:25.076Z,12.68
2022-10-19T03:31:51.570Z,12.70
2022-10-19T03:34:18.019Z,12.72
2022-10-19T03:36:44.466Z,12.72
2022-10-19T03:39:13.501Z,12.73
2022-10-19T03:41:40.199Z,12.73
2022-10-19T03:44:07.619Z,12.74
2022-10-19T03:46:34.520Z,12.75
2022-10-19T03:49:01.264Z,12.77
2022-10-19T03:51:29.040Z,12.77
2022-10-19T03:53:57.675Z,12.77
2022-10-19T03:56:25.972Z,12.78
2022-10-19T03:58:53.857Z,12.78
2022-10-19T04:01:29.309Z,12.80
2022-10-19T04:04:04.834Z,12.81
2022-10-19T04:06:34.954Z,12.81
2022-10-19T04:09:01.957Z,12.81
2022-10-19T04:11:29.962Z,12.83
2022-10-19T04:13:57.735Z,12.84
2022-10-19T04:16:25.395Z,12.85
2022-10-19T04:18:52.152Z,12.87
2022-10-19T04:21:33.156Z,12.88
2022-10-19T04:24:11.871Z,12.88
2022-10-19T04:26:40.691Z,12.89
2022-10-19T04:29:07.521Z,12.89
2022-10-19T04:31:34.247Z,12.89
2022-10-19T04:34:00.641Z,12.90
2022-10-19T04:36:27.072Z,12.90
2022-10-19T04:38:53.545Z,12.88
2022-10-19T04:41:21.065Z,12.88
2022-10-19T04:43:48.603Z,12.85
2022-10-19T04:46:18.097Z,12.84
2022-10-19T04:48:45.634Z,12.84
2022-10-19T04:51:12.608Z,12.84
2022-10-19T04:53:40.732Z,12.81
2022-10-19T04:56:09.175Z,12.77
2022-10-19T04:58:35.640Z,12.77
2022-10-19T05:01:12.646Z,12.80
2022-10-19T05:03:39.273Z,12.81
2022-10-19T05:06:06.614Z,12.82
2022-10-19T05:08:33.681Z,12.80
2022-10-19T05:11:05.983Z,12.79
2022-10-19T05:13:33.165Z,12.81
2022-10-19T05:16:00.844Z,12.83
2022-10-19T05:18:27.288Z,12.83
2022-10-19T05:21:04.473Z,12.83
2022-10-19T05:26:06.458Z,12.84
2022-10-19T05:28:33.025Z,12.84
2022-10-19T05:31:13.974Z,12.85
2022-10-19T05:33:40.955Z,12.86
2022-10-19T05:36:26.171Z,12.86
2022-10-19T05:38:54.236Z,12.87
2022-10-19T05:41:21.824Z,12.88
2022-10-19T05:43:52.725Z,12.89
2022-10-19T05:46:19.158Z,12.90
2022-10-19T05:48:46.278Z,12.91
2022-10-19T05:51:14.661Z,12.90
2022-10-19T05:53:41.822Z,12.92
2022-10-19T05:56:11.362Z,12.92
2022-10-19T05:58:37.775Z,12.95
2022-10-19T06:01:04.274Z,12.95
2022-10-19T06:03:30.948Z,12.97
2022-10-19T06:05:57.932Z,12.96
2022-10-19T06:08:24.926Z,12.97
2022-10-19T06:10:51.680Z,12.99
2022-10-19T06:13:19.057Z,12.99
2022-10-19T06:15:45.474Z,13.00
2022-10-19T06:18:12.894Z,13.01
2022-10-19T06:20:41.622Z,13.01
2022-10-19T06:23:08.662Z,13.00
2022-10-19T06:25:36.040Z,13.01
2022-10-19T06:28:02.938Z,13.01
2022-10-19T06:30:29.451Z,13.03
2022-10-19T06:32:56.024Z,13.04
2022-10-19T06:35:22.845Z,13.05
2022-10-19T06:37:49.425Z,13.05
2022-10-19T06:40:15.936Z,13.05
2022-10-19T06:42:42.365Z,13.07
2022-10-19T06:45:10.047Z,13.08
2022-10-19T06:47:37.184Z,13.09
2022-10-19T06:50:05.635Z,13.09
2022-10-19T06:52:33.215Z,13.08
2022-10-19T06:54:59.853Z,13.08
2022-10-19T06:57:26.627Z,13.10
2022-10-19T06:59:53.775Z,13.09
2022-10-19T07:02:20.500Z,13.08
2022-10-19T07:04:46.972Z,13.10
2022-10-19T07:07:13.393Z,13.11
2022-10-19T07:09:39.841Z,13.13
2022-10-19T07:12:06.358Z,13.14
2022-10-19T07:14:38.524Z,13.16
2022-10-19T07:17:08.433Z,13.18
2022-10-19T07:19:34.951Z,13.16
2022-10-19T07:22:01.423Z,13.18
2022-10-19T07:24:27.850Z,13.19
2022-10-19T07:26:54.256Z,13.22
2022-10-19T07:29:20.844Z,13.23
2022-10-19T07:31:47.266Z,13.25
2022-10-19T07:34:14.378Z,13.25
2022-10-19T07:36:44.903Z,13.27
2022-10-19T07:39:12.543Z,13.27
2022-10-19T07:41:39.133Z,13.31
2022-10-19T07:44:05.846Z,13.37
2022-10-19T07:46:33.781Z,13.40
2022-10-19T07:49:00.900Z,13.46
2022-10-19T07:53:59.237Z,13.54
2022-10-19T07:56:26.796Z,13.58
2022-10-19T07:58:55.190Z,13.60
2022-10-19T08:01:29.682Z,13.63
2022-10-19T08:04:48.648Z,13.64
2022-10-19T08:06:44.060Z,13.67
2022-10-19T08:09:15.646Z,13.70
2022-10-19T08:11:49.366Z,13.71
2022-10-19T08:14:15.815Z,13.72
2022-10-19T08:16:44.265Z,13.76
2022-10-19T08:19:12.852Z,13.79
2022-10-19T08:21:41.439Z,13.84
2022-10-19T08:24:08.268Z,13.87
2022-10-19T08:26:37.655Z,13.88
2022-10-19T08:29:06.132Z,13.89
2022-10-19T08:31:32.696Z,13.94
2022-10-19T08:33:59.521Z,13.97
2022-10-19T08:36:26.106Z,14.01
2022-10-19T08:38:53.077Z,14.03
2022-10-19T08:41:25.627Z,14.06
2022-10-19T08:44:13.894Z,14.11
2022-10-19T08:46:49.294Z,14.15
2022-10-19T08:49:19.370Z,14.19
2022-10-19T08:51:50.274Z,14.21
2022-10-19T08:54:18.167Z,14.22
2022-10-19T08:57:00.295Z,14.24
2022-10-19T08:59:30.032Z,14.24
2022-10-19T09:02:00.048Z,14.24
2022-10-19T09:04:33.739Z,14.22
2022-10-19T09:07:23.835Z,14.23
2022-10-19T09:10:13.231Z,14.28
2022-10-19T09:12:52.867Z,14.33
2022-10-19T09:15:29.092Z,14.37
2022-10-19T09:17:55.530Z,14.38
2022-10-19T09:20:41.924Z,14.43
2022-10-19T09:23:28.766Z,14.46
2022-10-19T09:25:56.156Z,14.51
2022-10-19T09:28:39.691Z,14.47
2022-10-19T09:31:13.321Z,14.52
2022-10-19T09:33:40.843Z,14.53
2022-10-19T09:36:07.920Z,14.56
2022-10-19T09:38:34.469Z,14.60
2022-10-19T09:41:22.500Z,14.60
2022-10-19T09:43:53.786Z,14.59
2022-10-19T09:46:38.981Z,14.62
2022-10-19T09:49:06.112Z,14.70
2022-10-19T09:51:50.402Z,14.78
2022-10-19T09:54:26.512Z,14.85
2022-10-19T09:56:55.007Z,14.89
2022-10-19T09:59:23.274Z,14.92
2022-10-19T10:02:16.281Z,14.94
2022-10-19T10:04:46.017Z,14.99
2022-10-19T10:07:17.505Z,14.99
2022-10-19T10:09:44.811Z,15.02
2022-10-19T10:12:14.581Z,15.03
2022-10-19T10:14:41.285Z,15.07
2022-10-19T10:17:16.168Z,15.11
2022-10-19T10:19:57.780Z,15.17
2022-10-19T10:22:30.036Z,15.18
2022-10-19T10:24:56.906Z,15.21
2022-10-19T10:27:35.725Z,15.27
2022-10-19T10:30:19.547Z,15.32
2022-10-19T10:32:49.600Z,15.37
2022-10-19T10:35:39.398Z,15.42
2022-10-19T10:38:17.286Z,15.44
2022-10-19T10:40:51.993Z,15.47
2022-10-19T10:43:21.276Z,15.47
2022-10-19T10:45:53.103Z,15.50
2022-10-19T10:48:31.553Z,15.55
2022-10-19T10:51:00.042Z,15.61
2022-10-19T10:53:39.063Z,15.68
2022-10-19T10:56:10.295Z,15.73
2022-10-19T10:58:49.775Z,15.77
2022-10-19T11:01:20.150Z,15.79
2022-10-19T11:03:55.902Z,15.83
2022-10-19T11:09:11.290Z,15.78
2022-10-19T11:11:44.882Z,15.80
2022-10-19T11:14:32.786Z,15.73
2022-10-19T11:17:05.168Z,15.75
2022-10-19T11:19:31.566Z,15.78
2022-10-19T11:22:37.688Z,15.85
2022-10-19T11:25:44.049Z,15.90
2022-10-19T11:28:45.722Z,15.94
2022-10-19T11:31:16.514Z,15.98
2022-10-19T11:36:23.130Z,16.05
2022-10-19T11:39:24.369Z,16.09
2022-10-19T11:42:09.013Z,16.07
2022-10-19T11:45:00.237Z,16.07
2022-10-19T11:47:29.306Z,16.04
2022-10-19T11:50:31.083Z,16.05
2022-10-19T11:53:12.427Z,16.07
2022-10-19T11:55:51.444Z,16.04
2022-10-19T11:58:33.719Z,16.05
2022-10-19T12:01:07.072Z,16.06
2022-10-19T12:03:33.432Z,16.11
2022-10-19T12:06:10.964Z,16.15
2022-10-19T12:08:57.110Z,16.20
2022-10-19T12:11:41.995Z,16.24
2022-10-19T12:14:13.922Z,16.28
2022-10-19T12:16:43.494Z,16.29
2022-10-19T12:19:17.634Z,16.26
2022-10-19T12:21:44.537Z,16.27
2022-10-19T12:24:17.710Z,16.26
2022-10-19T12:26:45.447Z,16.28
2022-10-19T12:29:16.205Z,16.28
2022-10-19T12:31:43.011Z,16.29
2022-10-19T12:34:47.250Z,16.30
2022-10-19T12:37:28.344Z,16.29
2022-10-19T12:39:57.641Z,16.29
2022-10-19T12:42:35.178Z,16.28
2022-10-19T12:45:23.722Z,16.33
2022-10-19T12:48:25.474Z,16.34
2022-10-19T12:50:56.660Z,16.34
2022-10-19T12:53:37.972Z,16.34
2022-10-19T12:56:13.583Z,16.36
2022-10-19T12:58:47.954Z,16.37
2022-10-19T13:01:21.452Z,16.40
2022-10-19T13:03:50.325Z,16.46
2022-10-19T13:06:22.875Z,16.52
2022-10-19T13:08:57.829Z,16.51
2022-10-19T13:11:24.490Z,16.53
2022-10-19T13:14:04.185Z,16.55
2022-10-19T13:16:41.853Z,16.57
2022-10-19T13:19:14.186Z,16.61
2022-10-19T13:21:48.432Z,16.61
2022-10-19T13:24:23.897Z,16.61
2022-10-19T13:27:02.474Z,16.62
2022-10-19T13:29:41.146Z,16.62
2022-10-19T13:32:35.753Z,16.62
2022-10-19T13:35:24.648Z,16.62
2022-10-19T13:38:09.310Z,16.59
2022-10-19T13:40:55.733Z,16.56
2022-10-19T13:43:26.303Z,16.53
2022-10-19T13:46:07.762Z,16.51
2022-10-19T13:48:38.640Z,16.49
2022-10-19T13:51:18.029Z,16.49
2022-10-19T13:54:07.094Z,16.49
2022-10-19T13:57:05.980Z,16.47
2022-10-19T13:59:56.119Z,16.46
2022-10-19T14:02:41.275Z,16.45
2022-10-19T14:05:44.159Z,16.44
2022-10-19T14:08:34.948Z,16.41
2022-10-19T14:11:19.922Z,16.40
2022-10-19T14:13:47.310Z,16.37
2022-10-19T14:16:21.318Z,16.37
2022-10-19T14:18:55.727Z,16.36
2022-10-19T14:21:36.928Z,16.36
2022-10-19T14:24:19.474Z,16.35
2022-10-19T14:26:46.217Z,16.33
2022-10-19T14:29:12.900Z,16.28
2022-10-19T14:31:39.409Z,16.27
2022-10-19T14:34:08.688Z,16.26
2022-10-19T14:36:37.740Z,16.24
2022-10-19T14:39:05.239Z,16.21
2022-10-19T14:41:36.508Z,16.17
2022-10-19T14:44:28.067Z,16.14
2022-10-19T14:46:54.534Z,16.09
2022-10-19T14:49:21.011Z,16.05
2022-10-19T14:52:05.843Z,16.01
2022-10-19T14:54:42.064Z,15.95
2022-10-19T14:57:13.214Z,15.92
2022-10-19T14:59:51.011Z,15.87
2022-10-19T15:02:31.355Z,15.84
2022-10-19T15:05:00.069Z,15.83
2022-10-19T15:07:38.327Z,15.82
2022-10-19T15:10:31.254Z,15.80
2022-10-19T15:13:05.365Z,15.78
2022-10-19T15:15:33.997Z,15.78
2022-10-19T15:18:00.442Z,15.77
2022-10-19T15:20:48.995Z,15.74
2022-10-19T15:23:41.118Z,15.70
2022-10-19T15:26:19.998Z,15.67
2022-10-19T15:28:47.840Z,15.64
2022-10-19T15:31:26.741Z,15.62
2022-10-19T15:33:55.684Z,15.57
2022-10-19T15:36:23.218Z,15.51
2022-10-19T15:39:11.164Z,15.49
2022-10-19T15:41:45.077Z,15.47
2022-10-19T15:44:34.347Z,15.43
2022-10-19T15:47:19.144Z,15.41
2022-10-19T15:49:45.761Z,15.38
2022-10-19T15:52:36.340Z,15.36
2022-10-19T15:55:02.890Z,15.33
2022-10-19T15:57:33.451Z,15.30
2022-10-19T16:00:15.257Z,15.28
2022-10-19T16:02:41.749Z,15.26
2022-10-19T16:05:08.785Z,15.24
2022-10-19T16:07:37.850Z,15.20
2022-10-19T16:10:05.223Z,15.17
2022-10-19T16:12:31.655Z,15.14
2022-10-19T16:14:58.111Z,15.09
2022-10-19T16:17:24.514Z,15.05
2022-10-19T16:19:51.223Z,15.03
2022-10-19T16:22:17.687Z,15.00
2022-10-19T16:24:44.147Z,14.98
2022-10-19T16:27:14.995Z,14.94
2022-10-19T16:29:42.838Z,14.90
2022-10-19T16:32:09.532Z,14.87
2022-10-19T16:34:35.983Z,14.83
2022-10-19T16:37:05.735Z,14.79
2022-10-19T16:39:33.632Z,14.76
2022-10-19T16:42:00.298Z,14.70
2022-10-19T16:44:26.767Z,14.64
2022-10-19T16:46:53.212Z,14.56
2022-10-19T16:49:19.633Z,14.50
2022-10-19T16:51:46.056Z,14.43
2022-10-19T16:54:13.072Z,14.37
2022-10-19T16:56:45.175Z,14.29
2022-10-19T16:59:16.986Z,14.21
2022-10-19T17:01:45.090Z,14.15
2022-10-19T17:04:12.659Z,14.10
2022-10-19T17:06:39.468Z,14.04
2022-10-19T17:11:52.436Z,13.90
2022-10-19T17:14:19.120Z,13.85
2022-10-19T17:16:45.568Z,13.80
2022-10-19T17:19:12.054Z,13.74
2022-10-19T17:21:39.234Z,13.72
2022-10-19T17:24:07.441Z,13.67
2022-10-19T17:26:45.127Z,13.63
2022-10-19T17:29:14.066Z,13.59
2022-10-19T17:31:41.454Z,13.53
2022-10-19T17:34:08.430Z,13.50
2022-10-19T17:36:41.930Z,13.45
2022-10-19T17:39:13.106Z,13.39
2022-10-19T17:41:39.569Z,13.32
2022-10-19T17:44:06.269Z,13.28
2022-10-19T17:46:34.670Z,13.23
2022-10-19T17:49:01.096Z,13.19
2022-10-19T17:51:30.022Z,13.14
2022-10-19T17:53:58.486Z,13.09
2022-10-19T17:56:25.464Z,13.03
2022-10-19T17:58:52.000Z,12.98
2022-10-19T18:01:20.142Z,12.95
2022-10-19T18:03:46.928Z,12.90
2022-10-19T18:06:19.146Z,12.88
2022-10-19T18:08:48.646Z,12.83
2022-10-19T18:11:30.650Z,12.79
2022-10-19T18:13:59.385Z,12.74
2022-10-19T18:16:29.720Z,12.70
2022-10-19T18:18:59.675Z,12.65
2022-10-19T18:21:35.830Z,12.60
2022-10-19T18:24:03.565Z,12.54
2022-10-19T18:26:32.884Z,12.49
2022-10-19T18:29:04.638Z,12.45
2022-10-19T18:31:33.369Z,12.40
2022-10-19T18:34:02.766Z,12.34
2022-10-19T18:36:29.761Z,12.29
2022-10-19T18:39:01.487Z,12.25
2022-10-19T18:41:29.709Z,12.22
2022-10-19T18:44:05.052Z,12.19
2022-10-19T18:46:36.137Z,12.14
2022-10-19T18:49:05.349Z,12.12
2022-10-19T18:51:31.972Z,12.08
2022-10-19T18:53:58.846Z,12.02
2022-10-19T18:56:25.384Z,11.97
2022-10-19T18:58:51.788Z,11.95
2022-10-19T19:01:24.018Z,11.92
2022-10-19T19:03:52.589Z,11.88
2022-10-19T19:06:22.129Z,11.85
2022-10-19T19:08:49.607Z,11.83
2022-10-19T19:11:18.536Z,11.79
2022-10-19T19:13:55.751Z,11.74
2022-10-19T19:16:22.448Z,11.70
2022-10-19T19:18:48.887Z,11.67
2022-10-19T19:21:23.680Z,11.62
2022-10-19T19:23:50.684Z,11.57
2022-10-19T19:26:17.560Z,11.53
2022-10-19T19:28:47.621Z,11.48
2022-10-19T19:31:18.261Z,11.42
2022-10-19T19:33:45.477Z,11.41
2022-10-19T19:36:13.217Z,11.38
2022-10-19T19:38:40.132Z,11.34
2022-10-19T19:41:08.058Z,11.26
2022-10-19T19:43:37.009Z,11.18
2022-10-19T19:46:08.145Z,11.15
2022-10-19T19:48:36.591Z,11.09
2022-10-19T19:51:03.148Z,11.05
2022-10-19T19:53:30.724Z,11.01
2022-10-19T19:55:57.199Z,11.00
2022-10-19T19:58:23.642Z,11.00
2022-10-19T20:00:50.077Z,10.95
2022-10-19T20:03:16.535Z,10.93
2022-10-19T20:05:43.000Z,10.89
2022-10-19T20:08:09.885Z,10.86
2022-10-19T20:10:39.962Z,10.84
2022-10-19T20:13:06.675Z,10.84
2022-10-19T20:15:33.149Z,10.82
2022-10-19T20:17:59.613Z,10.79
2022-10-19T20:20:26.002Z,10.74
2022-10-19T20:22:52.422Z,10.72
2022-10-19T20:25:18.838Z,10.70
2022-10-19T20:27:45.250Z,10.65
2022-10-19T20:30:11.830Z,10.65
2022-10-19T20:32:38.378Z,10.63
2022-10-19T20:35:05.313Z,10.60
2022-10-19T20:37:32.287Z,10.59
2022-10-19T20:39:58.676Z,10.56
2022-10-19T20:42:25.335Z,10.53
2022-10-19T20:44:54.684Z,10.48
2022-10-19T20:47:21.161Z,10.45
2022-10-19T20:49:47.847Z,10.42
2022-10-19T20:52:14.269Z,10.36
2022-10-19T20:54:40.670Z,10.32
2022-10-19T20:57:07.065Z,10.30
2022-10-19T20:59:33.533Z,10.28
2022-10-19T21:01:59.958Z,10.25
2022-10-19T21:04:26.762Z,10.23
2022-10-19T21:06:53.200Z,10.20
2022-10-19T21:09:21.615Z,10.17
2022-10-19T21:11:50.110Z,10.15
2022-10-19T21:14:21.248Z,10.11
2022-10-19T21:16:50.317Z,10.08
2022-10-19T21:19:19.183Z,10.06
2022-10-19T21:21:51.778Z,10.02
2022-10-19T21:24:26.995Z,10.01
2022-10-19T21:26:54.013Z,9.98
2022-10-19T21:29:20.555Z,9.95
2022-10-19T21:31:49.220Z,9.91
2022-10-19T21:34:21.931Z,9.87
2022-10-19T21:36:48.677Z,9.83
2022-10-19T21:39:15.211Z,9.79
2022-10-19T21:41:41.665Z,9.77
2022-10-19T21:44:08.423Z,9.74
2022-10-19T21:46:34.878Z,9.72
2022-10-19T21:49:01.302Z,9.68
2022-10-19T21:51:37.475Z,9.64
2022-10-19T21:54:05.734Z,9.61
2022-10-19T21:56:32.871Z,9.56
2022-10-19T21:58:59.341Z,9.52
2022-10-19T22:01:28.037Z,9.45
2022-10-19T22:03:58.535Z,9.44
2022-10-19T22:06:27.306Z,9.42
2022-10-19T22:08:54.086Z,9.40
2022-10-19T22:11:21.101Z,9.39
2022-10-19T22:13:47.659Z,9.35
2022-10-19T22:16:19.641Z,9.32
2022-10-19T22:18:46.935Z,9.30
2022-10-19T22:21:15.961Z,9.26
2022-10-19T22:23:43.098Z,9.20
2022-10-19T22:26:17.932Z,9.17
2022-10-19T22:28:44.949Z,9.16
2022-10-19T22:31:12.051Z,9.15
2022-10-19T22:33:38.703Z,9.12
2022-10-19T22:36:07.858Z,9.12
2022-10-19T22:38:36.304Z,9.11
2022-10-19T22:41:02.744Z,9.10
2022-10-19T22:43:29.192Z,9.08
2022-10-19T22:45:55.605Z,9.07
2022-10-19T22:48:22.072Z,9.06
2022-10-19T22:50:48.620Z,9.05
2022-10-19T22:53:15.129Z,9.02
2022-10-19T22:55:41.614Z,9.00
2022-10-19T22:58:08.406Z,9.00
2022-10-19T23:00:34.969Z,8.99
2022-10-19T23:03:01.570Z,9.00
2022-10-19T23:05:28.123Z,9.00
2022-10-19T23:07:54.587Z,8.98
2022-10-19T23:10:21.105Z,8.97
2022-10-19T23:12:52.036Z,8.96
2022-10-19T23:15:19.176Z,8.95
2022-10-19T23:17:45.648Z,8.93
2022-10-19T23:20:12.979Z,8.90
2022-10-19T23:22:40.159Z,8.90
2022-10-19T23:25:07.117Z,8.88
2022-10-19T23:27:33.806Z,8.87
2022-10-19T23:30:00.647Z,8.87
2022-10-19T23:32:27.088Z,8.88
2022-10-19T23:34:53.660Z,8.87
2022-10-19T23:37:20.172Z,8.87
2022-10-19T23:39:46.693Z,8.89
2022-10-19T23:42:13.199Z,8.88
2022-10-19T23:44:39.701Z,8.87
2022-10-19T23:47:06.149Z,8.89
2022-10-19T23:49:32.628Z,8.90
2022-10-19T23:51:59.090Z,8.90
2022-10-19T23:54:25.572Z,8.89
2022-10-19T23:56:52.052Z,8.88
2022-10-19T23:59:18.489Z,8.87
